Terminal Aerodrome Forecast
Issued by NWS Upton, NY

Home | Current Version | Previous Version | Text Only | Print | Product List | Glossary On
Versions: 1 2 3 4 5 6 7 8 9 10 11 12 13 14 15 16 17 18 19 20 21 22 23 24 25 26 27 28 29
000
FTUS41 KOKX 281135
TAFEWR
TAF
KEWR 281135Z 2812/2918 25004KT P6SM FEW030 SCT250
     FM281600 22007KT P6SM FEW050 FEW250
     FM282000 16009KT P6SM SCT050
     FM290100 22006KT P6SM FEW050
     FM290500 VRB04KT P6SM FEW050
     FM291700 20009KT P6SM SCT050=

USA.gov is the U.S. government's official web portal to all federal, state and local government web resources and services.